N4042M KLAX-KCPM
Flight info
| Callsign | N4042M |
|---|---|
| Flight time | 0h -14m |
| Altitude | VFR |
| Route | |
| Aircraft | SR22/L-VGD/C |
Departure
| Time | 2026-05-06 23:00 |
|---|---|
| Airport | Los Angeles International Airport (KLAX) |
Arrival
| Time | 2026-05-06 22:46 |
|---|---|
| Airport | Compton Woodley Airport (KCPM) |
| Time | Latitude | Longitude | Altitude | Speed | Heading |
|---|---|---|---|---|---|
| 2026-05-06 22:46 | 33.93378 | -118.39070 | 118 ft | 0 kts | 176° |
| 2026-05-06 22:46 | 33.93377 | -118.39070 | 121 ft | 0 kts | 175° |
| 2026-05-06 22:48 | 33.93375 | -118.39070 | 121 ft | 0 kts | 176° |
| 2026-05-06 22:57 | 33.93373 | -118.39070 | 121 ft | 0 kts | 204° |
| 2026-05-06 22:57 | 33.93416 | -118.39075 | 121 ft | 16 kts | 23° |
| 2026-05-06 22:57 | 33.93538 | -118.39024 | 119 ft | 24 kts | 83° |
| 2026-05-06 22:58 | 33.93563 | -118.38782 | 121 ft | 33 kts | 84° |
| 2026-05-06 22:58 | 33.93589 | -118.38497 | 121 ft | 34 kts | 85° |
| 2026-05-06 22:58 | 33.93606 | -118.38337 | 121 ft | 1 kts | 85° |
| 2026-05-06 22:58 | 33.93623 | -118.38290 | 118 ft | 1 kts | 39° |
| 2026-05-06 22:59 | 33.93641 | -118.38278 | 121 ft | 11 kts | 16° |
| 2026-05-06 22:59 | 33.93724 | -118.38395 | 118 ft | 38 kts | 263° |
| 2026-05-06 23:00 | 33.93674 | -118.38954 | 196 ft | 83 kts | 262° |
| 2026-05-06 23:00 | 33.93608 | -118.39659 | 456 ft | 86 kts | 263° |
| 2026-05-06 23:00 | 33.93519 | -118.40389 | 691 ft | 89 kts | 259° |
| 2026-05-06 23:00 | 33.93439 | -118.41160 | 964 ft | 98 kts | 263° |
| 2026-05-06 23:01 | 33.93355 | -118.41987 | 1322 ft | 101 kts | 261° |
| 2026-05-06 23:01 | 33.93144 | -118.42787 | 1635 ft | 108 kts | 229° |
| 2026-05-06 23:01 | 33.92401 | -118.43053 | 1980 ft | 120 kts | 187° |
| 2026-05-06 23:01 | 33.91558 | -118.43038 | 2354 ft | 122 kts | 185° |
| 2026-05-06 23:02 | 33.90696 | -118.43088 | 2713 ft | 125 kts | 185° |
| 2026-05-06 23:02 | 33.89815 | -118.43175 | 3061 ft | 129 kts | 185° |
| 2026-05-06 23:02 | 33.88920 | -118.43284 | 3406 ft | 132 kts | 186° |
| 2026-05-06 23:02 | 33.87941 | -118.43426 | 3485 ft | 153 kts | 186° |
| 2026-05-06 23:03 | 33.86828 | -118.43587 | 3494 ft | 169 kts | 186° |
| 2026-05-06 23:03 | 33.85625 | -118.43763 | 3488 ft | 179 kts | 187° |
| 2026-05-06 23:03 | 33.84376 | -118.43941 | 3492 ft | 183 kts | 187° |